PWSweather.com
Personal Weather Stations
Station Observations
KTXROWLE6
Ravens Nest, Rowlett, TX 75089

Ravens NestRowlett, TX 75089

Lat: 32.93105, Lon: -96.57368

Elevation: 556

Station Type: Davis Vantage Pro2 6152

http://rowlett.ws

High Low Average
Temperature 61.7°F16.5°F 50.6°F10.3°F 54.3°F12.4°F
Dew Point 54.3°F12.4°F 49.7°F9.8°F 51.8°F11.0°F
Winds 11.0 mph ESE17.7 mph ESE Calm Calm 2.6 mph 4.2 mph
Wind Gusts 15.0 mph24.1 mph -- 6.0 mph9.7 mph
Humidity 98% 76% 92%
Pressure 30.00 in1015.90 in 29.65 in1004.10 in -
Precipitation 0.62 in15.70 in - -
Hour Temp Dew Point Humidity Winds Wind Gusts Pressure Precip Precip Rate Daily Precip Total
12:00 AM 50.6°F10.3°C 49.7°F9.8°C 97% Calm Calm -- 30.00 in1015.9 mb 0.02 in0.5 mm 0.00 in0.0 mm 0.49 in12.4 mm
12:05 AM 50.6°F10.3°C 49.7°F9.8°C 97% Calm Calm -- 29.99 in1015.6 mb 0.02 in0.5 mm 0.00 in0.0 mm 0.02 in0.5 mm
12:10 AM 50.6°F10.3°C 49.7°F9.8°C 97% Calm Calm -- 29.99 in1015.6 mb 0.02 in0.5 mm 0.00 in0.0 mm 0.02 in0.5 mm
12:15 AM 50.6°F10.3°C 49.7°F9.8°C 97% Calm Calm -- 29.99 in1015.6 mb 0.01 in0.3 mm 0.00 in0.0 mm 0.02 in0.5 mm
12:20 AM 50.7°F10.4°C 49.8°F9.9°C 97% Calm Calm -- 29.99 in1015.6 mb 0.01 in0.3 mm 0.00 in0.0 mm 0.02 in0.5 mm
12:25 AM 50.7°F10.4°C 49.8°F9.9°C 97% Calm Calm 1.0 mph1.6 kmh 29.99 in1015.6 mb 0.01 in0.3 mm 0.00 in0.0 mm 0.02 in0.5 mm
12:30 AM 50.8°F10.4°C 49.9°F9.9°C 97% Calm Calm -- 29.99 in1015.6 mb 0.01 in0.3 mm 0.00 in0.0 mm 0.02 in0.5 mm
12:35 AM 50.8°F10.4°C 49.9°F9.9°C 97% Calm Calm 1.0 mph1.6 kmh 29.99 in1015.6 mb 0.01 in0.3 mm 0.00 in0.0 mm 0.02 in0.5 mm
12:40 AM 50.9°F10.5°C 50.0°F10.0°C 97% Calm Calm 1.0 mph1.6 kmh 29.99 in1015.6 mb 0.01 in0.3 mm 0.00 in0.0 mm 0.02 in0.5 mm
12:45 AM 50.9°F10.5°C 50.0°F10.0°C 97% Calm Calm -- 29.99 in1015.6 mb 0.01 in0.3 mm 0.00 in0.0 mm 0.02 in0.5 mm
12:50 AM 50.9°F10.5°C 50.0°F10.0°C 97% Calm Calm -- 29.98 in1015.2 mb 0.01 in0.3 mm 0.00 in0.0 mm 0.02 in0.5 mm
12:55 AM 50.9°F10.5°C 50.0°F10.0°C 97% Calm Calm -- 29.99 in1015.6 mb 0.00 in0.0 mm 0.00 in0.0 mm 0.02 in0.5 mm
01:00 AM 50.9°F10.5°C 50.0°F10.0°C 97% Calm Calm -- 29.98 in1015.2 mb 0.00 in0.0 mm 0.00 in0.0 mm 0.02 in0.5 mm
01:05 AM 51.0°F10.6°C 50.1°F10.1°C 97% Calm Calm 2.0 mph3.2 kmh 29.99 in1015.6 mb 0.00 in0.0 mm 0.00 in0.0 mm 0.02 in0.5 mm
01:10 AM 51.0°F10.6°C 50.1°F10.1°C 97% Calm Calm -- 29.98 in1015.2 mb 0.00 in0.0 mm 0.00 in0.0 mm 0.02 in0.5 mm
01:15 AM 51.0°F10.6°C 50.1°F10.1°C 97% Calm Calm -- 29.98 in1015.2 mb 0.00 in0.0 mm 0.00 in0.0 mm 0.02 in0.5 mm
01:20 AM 51.0°F10.6°C 50.1°F10.1°C 97% Calm Calm 3.0 mph4.8 kmh 29.98 in1015.2 mb 0.00 in0.0 mm 0.00 in0.0 mm 0.02 in0.5 mm
01:25 AM 51.1°F10.6°C 50.2°F10.1°C 97% Calm Calm 2.0 mph3.2 kmh 29.98 in1015.2 mb 0.01 in0.3 mm 0.12 in3.0 mm 0.01 in0.3 mm
01:30 AM 51.1°F10.6°C 50.2°F10.1°C 97% 3.0 mph NW4.8 kmh NW 3.0 mph4.8 kmh 29.98 in1015.2 mb 0.01 in0.3 mm 0.00 in0.0 mm 0.01 in0.3 mm
01:35 AM 51.2°F10.7°C 50.3°F10.2°C 97% 1.0 mph NW1.6 kmh NW 3.0 mph4.8 kmh 29.98 in1015.2 mb 0.01 in0.3 mm 0.00 in0.0 mm 0.01 in0.3 mm
01:40 AM 51.2°F10.7°C 50.3°F10.2°C 97% Calm Calm 1.0 mph1.6 kmh 29.98 in1015.2 mb 0.01 in0.3 mm 0.00 in0.0 mm 0.01 in0.3 mm
01:45 AM 51.2°F10.7°C 50.3°F10.2°C 97% Calm Calm -- 29.98 in1015.2 mb 0.01 in0.3 mm 0.00 in0.0 mm 0.01 in0.3 mm
01:50 AM 51.2°F10.7°C 50.3°F10.2°C 97% 1.0 mph NW1.6 kmh NW 2.0 mph3.2 kmh 29.97 in1014.9 mb 0.01 in0.3 mm 0.00 in0.0 mm 0.01 in0.3 mm
01:55 AM 51.2°F10.7°C 50.3°F10.2°C 97% Calm Calm 2.0 mph3.2 kmh 29.96 in1014.6 mb 0.01 in0.3 mm 0.00 in0.0 mm 0.01 in0.3 mm
02:00 AM 51.2°F10.7°C 50.3°F10.2°C 97% Calm Calm -- 29.96 in1014.6 mb 0.01 in0.3 mm 0.00 in0.0 mm 0.01 in0.3 mm
02:05 AM 51.2°F10.7°C 50.3°F10.2°C 97% Calm Calm -- 29.96 in1014.6 mb 0.01 in0.3 mm 0.00 in0.0 mm 0.01 in0.3 mm
02:10 AM 51.1°F10.6°C 50.2°F10.1°C 97% Calm Calm -- 29.96 in1014.6 mb 0.01 in0.3 mm 0.00 in0.0 mm 0.01 in0.3 mm
02:15 AM 51.1°F10.6°C 50.2°F10.1°C 97% Calm Calm -- 29.96 in1014.6 mb 0.02 in0.5 mm 0.12 in3.0 mm 0.02 in0.5 mm
02:20 AM 51.1°F10.6°C 50.2°F10.1°C 97% Calm Calm -- 29.96 in1014.6 mb 0.02 in0.5 mm 0.00 in0.0 mm 0.02 in0.5 mm
02:25 AM 51.1°F10.6°C 50.2°F10.1°C 97% Calm Calm -- 29.96 in1014.6 mb 0.01 in0.3 mm 0.00 in0.0 mm 0.02 in0.5 mm
02:30 AM 51.1°F10.6°C 50.2°F10.1°C 97% Calm Calm 2.0 mph3.2 kmh 29.96 in1014.6 mb 0.01 in0.3 mm 0.00 in0.0 mm 0.02 in0.5 mm
02:35 AM 51.1°F10.6°C 50.2°F10.1°C 97% Calm Calm 2.0 mph3.2 kmh 29.96 in1014.6 mb 0.01 in0.3 mm 0.00 in0.0 mm 0.02 in0.5 mm
02:40 AM 51.1°F10.6°C 50.2°F10.1°C 97% Calm Calm -- 29.95 in1014.2 mb 0.01 in0.3 mm 0.00 in0.0 mm 0.02 in0.5 mm
02:45 AM 51.1°F10.6°C 50.2°F10.1°C 97% Calm Calm -- 29.95 in1014.2 mb 0.01 in0.3 mm 0.00 in0.0 mm 0.02 in0.5 mm
02:50 AM 51.0°F10.6°C 50.1°F10.1°C 97% Calm Calm -- 29.96 in1014.6 mb 0.01 in0.3 mm 0.00 in0.0 mm 0.02 in0.5 mm
02:55 AM 51.0°F10.6°C 50.1°F10.1°C 97% Calm Calm -- 29.95 in1014.2 mb 0.01 in0.3 mm 0.00 in0.0 mm 0.02 in0.5 mm
03:00 AM 51.0°F10.6°C 50.1°F10.1°C 97% Calm Calm -- 29.95 in1014.2 mb 0.01 in0.3 mm 0.00 in0.0 mm 0.02 in0.5 mm
03:05 AM 51.0°F10.6°C 50.1°F10.1°C 97% Calm Calm -- 29.95 in1014.2 mb 0.01 in0.3 mm 0.00 in0.0 mm 0.02 in0.5 mm
03:10 AM 51.0°F10.6°C 50.1°F10.1°C 97% Calm Calm -- 29.95 in1014.2 mb 0.01 in0.3 mm 0.00 in0.0 mm 0.02 in0.5 mm
03:15 AM 51.0°F10.6°C 50.1°F10.1°C 97% Calm Calm -- 29.95 in1014.2 mb 0.00 in0.0 mm 0.00 in0.0 mm 0.02 in0.5 mm
03:20 AM 51.0°F10.6°C 50.1°F10.1°C 97% Calm Calm -- 29.95 in1014.2 mb 0.00 in0.0 mm 0.00 in0.0 mm 0.02 in0.5 mm
03:25 AM 51.0°F10.6°C 50.1°F10.1°C 97% Calm Calm -- 29.94 in1013.9 mb 0.00 in0.0 mm 0.00 in0.0 mm 0.02 in0.5 mm
03:30 AM 51.1°F10.6°C 50.2°F10.1°C 97% Calm Calm -- 29.94 in1013.9 mb 0.00 in0.0 mm 0.00 in0.0 mm 0.02 in0.5 mm
03:35 AM 51.0°F10.6°C 50.1°F10.1°C 97% Calm Calm -- 29.95 in1014.2 mb 0.00 in0.0 mm 0.00 in0.0 mm 0.02 in0.5 mm
03:40 AM 51.1°F10.6°C 50.2°F10.1°C 97% Calm Calm -- 29.95 in1014.2 mb 0.00 in0.0 mm 0.00 in0.0 mm 0.02 in0.5 mm
03:45 AM 51.1°F10.6°C 50.2°F10.1°C 97% Calm Calm -- 29.95 in1014.2 mb 0.00 in0.0 mm 0.00 in0.0 mm 0.02 in0.5 mm
03:50 AM 51.1°F10.6°C 50.2°F10.1°C 97% Calm Calm -- 29.94 in1013.9 mb 0.00 in0.0 mm 0.00 in0.0 mm 0.02 in0.5 mm
03:55 AM 51.1°F10.6°C 50.2°F10.1°C 97% Calm Calm -- 29.93 in1013.5 mb 0.00 in0.0 mm 0.00 in0.0 mm 0.02 in0.5 mm
04:00 AM 51.2°F10.7°C 50.3°F10.2°C 97% Calm Calm -- 29.93 in1013.5 mb 0.00 in0.0 mm 0.00 in0.0 mm 0.02 in0.5 mm
04:05 AM 51.2°F10.7°C 50.3°F10.2°C 97% Calm Calm -- 29.93 in1013.5 mb 0.00 in0.0 mm 0.00 in0.0 mm 0.02 in0.5 mm
04:10 AM 51.2°F10.7°C 50.3°F10.2°C 97% Calm Calm -- 29.93 in1013.5 mb 0.00 in0.0 mm 0.00 in0.0 mm 0.02 in0.5 mm
04:15 AM 51.2°F10.7°C 50.3°F10.2°C 97% Calm Calm 2.0 mph3.2 kmh 29.93 in1013.5 mb 0.01 in0.3 mm 0.12 in3.0 mm 0.03 in0.8 mm
04:20 AM 51.3°F10.7°C 50.4°F10.2°C 97% 1.0 mph NW1.6 kmh NW -- 29.93 in1013.5 mb 0.01 in0.3 mm 0.00 in0.0 mm 0.03 in0.8 mm
04:25 AM 51.3°F10.7°C 50.4°F10.2°C 97% Calm Calm 1.0 mph1.6 kmh 29.93 in1013.5 mb 0.01 in0.3 mm 0.00 in0.0 mm 0.03 in0.8 mm
04:30 AM 51.3°F10.7°C 50.4°F10.2°C 97% Calm Calm -- 29.93 in1013.5 mb 0.01 in0.3 mm 0.00 in0.0 mm 0.03 in0.8 mm
04:35 AM 51.3°F10.7°C 50.4°F10.2°C 97% Calm Calm -- 29.93 in1013.5 mb 0.01 in0.3 mm 0.00 in0.0 mm 0.03 in0.8 mm
04:40 AM 51.3°F10.7°C 50.4°F10.2°C 97% 1.0 mph NW1.6 kmh NW 1.0 mph1.6 kmh 29.92 in1013.2 mb 0.01 in0.3 mm 0.00 in0.0 mm 0.03 in0.8 mm
04:45 AM 51.3°F10.7°C 50.4°F10.2°C 97% Calm Calm 1.0 mph1.6 kmh 29.93 in1013.5 mb 0.01 in0.3 mm 0.00 in0.0 mm 0.03 in0.8 mm
04:50 AM 51.3°F10.7°C 50.4°F10.2°C 97% Calm Calm 2.0 mph3.2 kmh 29.92 in1013.2 mb 0.01 in0.3 mm 0.00 in0.0 mm 0.03 in0.8 mm
04:55 AM 51.3°F10.7°C 50.4°F10.2°C 97% Calm Calm 2.0 mph3.2 kmh 29.92 in1013.2 mb 0.01 in0.3 mm 0.00 in0.0 mm 0.03 in0.8 mm
05:00 AM 51.3°F10.7°C 50.4°F10.2°C 97% Calm Calm -- 29.91 in1012.9 mb 0.01 in0.3 mm 0.00 in0.0 mm 0.03 in0.8 mm
05:05 AM 51.3°F10.7°C 50.4°F10.2°C 97% Calm Calm -- 29.91 in1012.9 mb 0.01 in0.3 mm 0.00 in0.0 mm 0.03 in0.8 mm
05:10 AM 51.3°F10.7°C 50.4°F10.2°C 97% Calm Calm -- 29.91 in1012.9 mb 0.01 in0.3 mm 0.00 in0.0 mm 0.03 in0.8 mm
05:15 AM 51.3°F10.7°C 50.4°F10.2°C 97% Calm Calm -- 29.91 in1012.9 mb 0.00 in0.0 mm 0.00 in0.0 mm 0.03 in0.8 mm
05:20 AM 51.3°F10.7°C 50.4°F10.2°C 97% Calm Calm -- 29.91 in1012.9 mb 0.00 in0.0 mm 0.00 in0.0 mm 0.03 in0.8 mm
05:25 AM 51.3°F10.7°C 50.4°F10.2°C 97% Calm Calm -- 29.90 in1012.5 mb 0.00 in0.0 mm 0.00 in0.0 mm 0.03 in0.8 mm
05:30 AM 51.3°F10.7°C 50.4°F10.2°C 97% Calm Calm -- 29.89 in1012.2 mb 0.00 in0.0 mm 0.00 in0.0 mm 0.03 in0.8 mm
05:35 AM 51.2°F10.7°C 50.3°F10.2°C 97% Calm Calm 3.0 mph4.8 kmh 29.89 in1012.2 mb 0.00 in0.0 mm 0.00 in0.0 mm 0.03 in0.8 mm
05:40 AM 51.2°F10.7°C 50.3°F10.2°C 97% Calm Calm -- 29.89 in1012.2 mb 0.00 in0.0 mm 0.00 in0.0 mm 0.03 in0.8 mm
05:45 AM 51.1°F10.6°C 50.5°F10.3°C 98% Calm Calm -- 29.89 in1012.2 mb 0.00 in0.0 mm 0.00 in0.0 mm 0.03 in0.8 mm
05:50 AM 51.1°F10.6°C 50.2°F10.1°C 97% Calm Calm 1.0 mph1.6 kmh 29.89 in1012.2 mb 0.00 in0.0 mm 0.00 in0.0 mm 0.03 in0.8 mm
05:55 AM 51.0°F10.6°C 50.1°F10.1°C 97% Calm Calm -- 29.88 in1011.9 mb 0.00 in0.0 mm 0.00 in0.0 mm 0.03 in0.8 mm
06:00 AM 51.0°F10.6°C 50.1°F10.1°C 97% Calm Calm -- 29.89 in1012.2 mb 0.00 in0.0 mm 0.00 in0.0 mm 0.03 in0.8 mm
06:05 AM 50.9°F10.5°C 50.0°F10.0°C 97% Calm Calm -- 29.89 in1012.2 mb 0.00 in0.0 mm 0.00 in0.0 mm 0.03 in0.8 mm
06:10 AM 50.8°F10.4°C 49.9°F9.9°C 97% Calm Calm 2.0 mph3.2 kmh 29.88 in1011.9 mb 0.00 in0.0 mm 0.00 in0.0 mm 0.03 in0.8 mm
06:15 AM 50.8°F10.4°C 49.9°F9.9°C 97% Calm Calm -- 29.87 in1011.5 mb 0.00 in0.0 mm 0.00 in0.0 mm 0.03 in0.8 mm
06:20 AM 50.7°F10.4°C 49.8°F9.9°C 97% Calm Calm -- 29.87 in1011.5 mb 0.00 in0.0 mm 0.00 in0.0 mm 0.03 in0.8 mm
06:25 AM 50.7°F10.4°C 49.8°F9.9°C 97% Calm Calm -- 29.87 in1011.5 mb 0.00 in0.0 mm 0.00 in0.0 mm 0.03 in0.8 mm
06:30 AM 50.7°F10.4°C 49.8°F9.9°C 97% 1.0 mph NW1.6 kmh NW -- 29.87 in1011.5 mb 0.00 in0.0 mm 0.00 in0.0 mm 0.03 in0.8 mm
06:35 AM 50.7°F10.4°C 49.8°F9.9°C 97% Calm Calm 1.0 mph1.6 kmh 29.87 in1011.5 mb 0.00 in0.0 mm 0.00 in0.0 mm 0.03 in0.8 mm
06:40 AM 50.7°F10.4°C 49.8°F9.9°C 97% Calm Calm -- 29.87 in1011.5 mb 0.00 in0.0 mm 0.00 in0.0 mm 0.03 in0.8 mm
06:45 AM 50.7°F10.4°C 49.8°F9.9°C 97% Calm Calm -- 29.87 in1011.5 mb 0.00 in0.0 mm 0.00 in0.0 mm 0.03 in0.8 mm
06:50 AM 50.8°F10.4°C 49.9°F9.9°C 97% Calm Calm -- 29.87 in1011.5 mb 0.00 in0.0 mm 0.00 in0.0 mm 0.03 in0.8 mm
06:55 AM 50.8°F10.4°C 49.9°F9.9°C 97% Calm Calm -- 29.86 in1011.2 mb 0.00 in0.0 mm 0.00 in0.0 mm 0.03 in0.8 mm
07:00 AM 50.9°F10.5°C 50.0°F10.0°C 97% 2.0 mph NW3.2 kmh NW 2.0 mph3.2 kmh 29.86 in1011.2 mb 0.00 in0.0 mm 0.00 in0.0 mm 0.03 in0.8 mm
07:05 AM 50.9°F10.5°C 50.3°F10.2°C 98% 2.0 mph NW3.2 kmh NW 3.0 mph4.8 kmh 29.86 in1011.2 mb 0.00 in0.0 mm 0.00 in0.0 mm 0.03 in0.8 mm
07:10 AM 50.9°F10.5°C 50.3°F10.2°C 98% 1.0 mph NW1.6 kmh NW 3.0 mph4.8 kmh 29.86 in1011.2 mb 0.00 in0.0 mm 0.00 in0.0 mm 0.03 in0.8 mm
07:15 AM 50.9°F10.5°C 50.3°F10.2°C 98% Calm Calm 3.0 mph4.8 kmh 29.86 in1011.2 mb 0.00 in0.0 mm 0.00 in0.0 mm 0.03 in0.8 mm
07:20 AM 50.9°F10.5°C 50.3°F10.2°C 98% Calm Calm 3.0 mph4.8 kmh 29.86 in1011.2 mb 0.00 in0.0 mm 0.00 in0.0 mm 0.03 in0.8 mm
07:25 AM 50.9°F10.5°C 50.0°F10.0°C 97% 1.0 mph NW1.6 kmh NW 4.0 mph6.4 kmh 29.87 in1011.5 mb 0.00 in0.0 mm 0.00 in0.0 mm 0.03 in0.8 mm
07:30 AM 50.8°F10.4°C 49.9°F9.9°C 97% Calm Calm 4.0 mph6.4 kmh 29.86 in1011.2 mb 0.00 in0.0 mm 0.00 in0.0 mm 0.03 in0.8 mm
07:35 AM 50.8°F10.4°C 49.9°F9.9°C 97% Calm Calm 2.0 mph3.2 kmh 29.86 in1011.2 mb 0.00 in0.0 mm 0.00 in0.0 mm 0.03 in0.8 mm
07:40 AM 50.7°F10.4°C 49.8°F9.9°C 97% Calm Calm 4.0 mph6.4 kmh 29.87 in1011.5 mb 0.00 in0.0 mm 0.00 in0.0 mm 0.03 in0.8 mm
07:45 AM 50.7°F10.4°C 49.8°F9.9°C 97% Calm Calm 4.0 mph6.4 kmh 29.86 in1011.2 mb 0.00 in0.0 mm 0.00 in0.0 mm 0.03 in0.8 mm
07:50 AM 50.7°F10.4°C 49.8°F9.9°C 97% Calm Calm 2.0 mph3.2 kmh 29.86 in1011.2 mb 0.00 in0.0 mm 0.00 in0.0 mm 0.03 in0.8 mm
07:55 AM 50.7°F10.4°C 49.8°F9.9°C 97% 1.0 mph NW1.6 kmh NW 2.0 mph3.2 kmh 29.86 in1011.2 mb 0.00 in0.0 mm 0.00 in0.0 mm 0.03 in0.8 mm
08:00 AM 50.7°F10.4°C 49.8°F9.9°C 97% 1.0 mph NW1.6 kmh NW 5.0 mph8.0 kmh 29.86 in1011.2 mb 0.00 in0.0 mm 0.00 in0.0 mm 0.03 in0.8 mm
08:05 AM 50.8°F10.4°C 49.9°F9.9°C 97% Calm Calm 5.0 mph8.0 kmh 29.87 in1011.5 mb 0.00 in0.0 mm 0.00 in0.0 mm 0.03 in0.8 mm
08:10 AM 50.8°F10.4°C 49.9°F9.9°C 97% Calm Calm 4.0 mph6.4 kmh 29.87 in1011.5 mb 0.00 in0.0 mm 0.00 in0.0 mm 0.03 in0.8 mm
08:15 AM 50.8°F10.4°C 49.9°F9.9°C 97% Calm Calm 3.0 mph4.8 kmh 29.87 in1011.5 mb 0.00 in0.0 mm 0.00 in0.0 mm 0.03 in0.8 mm
08:20 AM 50.9°F10.5°C 50.0°F10.0°C 97% 1.0 mph NW1.6 kmh NW 3.0 mph4.8 kmh 29.87 in1011.5 mb 0.00 in0.0 mm 0.00 in0.0 mm 0.03 in0.8 mm
08:25 AM 51.0°F10.6°C 50.1°F10.1°C 97% 2.0 mph NW3.2 kmh NW 3.0 mph4.8 kmh 29.88 in1011.9 mb 0.00 in0.0 mm 0.00 in0.0 mm 0.03 in0.8 mm
08:30 AM 51.0°F10.6°C 50.1°F10.1°C 97% Calm Calm 2.0 mph3.2 kmh 29.88 in1011.9 mb 0.00 in0.0 mm 0.00 in0.0 mm 0.03 in0.8 mm
08:35 AM 51.1°F10.6°C 50.2°F10.1°C 97% Calm Calm 3.0 mph4.8 kmh 29.87 in1011.5 mb 0.00 in0.0 mm 0.00 in0.0 mm 0.03 in0.8 mm
08:40 AM 51.2°F10.7°C 50.3°F10.2°C 97% 1.0 mph NW1.6 kmh NW 2.0 mph3.2 kmh 29.87 in1011.5 mb 0.00 in0.0 mm 0.00 in0.0 mm 0.03 in0.8 mm
08:45 AM 51.2°F10.7°C 50.3°F10.2°C 97% 1.0 mph NW1.6 kmh NW 2.0 mph3.2 kmh 29.87 in1011.5 mb 0.00 in0.0 mm 0.00 in0.0 mm 0.03 in0.8 mm
08:50 AM 51.3°F10.7°C 50.4°F10.2°C 97% Calm Calm 2.0 mph3.2 kmh 29.87 in1011.5 mb 0.00 in0.0 mm 0.00 in0.0 mm 0.03 in0.8 mm
08:55 AM 51.4°F10.8°C 50.5°F10.3°C 97% 4.0 mph NW6.4 kmh NW 5.0 mph8.0 kmh 29.88 in1011.9 mb 0.00 in0.0 mm 0.00 in0.0 mm 0.03 in0.8 mm
09:00 AM 51.4°F10.8°C 50.5°F10.3°C 97% 2.0 mph SSE3.2 kmh SSE 7.0 mph11.3 kmh 29.88 in1011.9 mb 0.00 in0.0 mm 0.00 in0.0 mm 0.03 in0.8 mm
09:05 AM 51.3°F10.7°C 50.4°F10.2°C 97% 4.0 mph S6.4 kmh S 7.0 mph11.3 kmh 29.87 in1011.5 mb 0.00 in0.0 mm 0.00 in0.0 mm 0.03 in0.8 mm
09:10 AM 51.3°F10.7°C 50.4°F10.2°C 97% 2.0 mph SW3.2 kmh SW 7.0 mph11.3 kmh 29.88 in1011.9 mb 0.00 in0.0 mm 0.00 in0.0 mm 0.03 in0.8 mm
09:15 AM 51.3°F10.7°C 50.4°F10.2°C 97% 1.0 mph SSE1.6 kmh SSE 5.0 mph8.0 kmh 29.88 in1011.9 mb 0.00 in0.0 mm 0.00 in0.0 mm 0.03 in0.8 mm
09:20 AM 51.2°F10.7°C 50.3°F10.2°C 97% 1.0 mph SE1.6 kmh SE 7.0 mph11.3 kmh 29.88 in1011.9 mb 0.00 in0.0 mm 0.00 in0.0 mm 0.03 in0.8 mm
09:25 AM 51.1°F10.6°C 50.2°F10.1°C 97% 6.0 mph S9.7 kmh S 8.0 mph12.9 kmh 29.88 in1011.9 mb 0.00 in0.0 mm 0.00 in0.0 mm 0.03 in0.8 mm
09:30 AM 51.0°F10.6°C 50.1°F10.1°C 97% 2.0 mph SW3.2 kmh SW 11.0 mph17.7 kmh 29.88 in1011.9 mb 0.00 in0.0 mm 0.00 in0.0 mm 0.03 in0.8 mm
09:35 AM 51.1°F10.6°C 50.2°F10.1°C 97% 1.0 mph SSE1.6 kmh SSE 6.0 mph9.7 kmh 29.87 in1011.5 mb 0.00 in0.0 mm 0.00 in0.0 mm 0.03 in0.8 mm
09:40 AM 51.2°F10.7°C 50.3°F10.2°C 97% Calm Calm 5.0 mph8.0 kmh 29.86 in1011.2 mb 0.00 in0.0 mm 0.00 in0.0 mm 0.03 in0.8 mm
09:45 AM 51.2°F10.7°C 50.3°F10.2°C 97% 3.0 mph SE4.8 kmh SE 6.0 mph9.7 kmh 29.86 in1011.2 mb 0.00 in0.0 mm 0.00 in0.0 mm 0.03 in0.8 mm
09:50 AM 51.2°F10.7°C 50.3°F10.2°C 97% 5.0 mph S8.0 kmh S 6.0 mph9.7 kmh 29.86 in1011.2 mb 0.00 in0.0 mm 0.00 in0.0 mm 0.03 in0.8 mm
09:55 AM 51.2°F10.7°C 50.3°F10.2°C 97% 8.0 mph SW12.9 kmh SW 8.0 mph12.9 kmh 29.86 in1011.2 mb 0.00 in0.0 mm 0.00 in0.0 mm 0.03 in0.8 mm
10:00 AM 51.2°F10.7°C 50.3°F10.2°C 97% 5.0 mph SW8.0 kmh SW 8.0 mph12.9 kmh 29.87 in1011.5 mb 0.00 in0.0 mm 0.00 in0.0 mm 0.03 in0.8 mm
10:05 AM 51.1°F10.6°C 50.2°F10.1°C 97% 5.0 mph SW8.0 kmh SW 9.0 mph14.5 kmh 29.87 in1011.5 mb 0.00 in0.0 mm 0.00 in0.0 mm 0.03 in0.8 mm
10:10 AM 51.1°F10.6°C 50.2°F10.1°C 97% 6.0 mph SSW9.7 kmh SSW 9.0 mph14.5 kmh 29.87 in1011.5 mb 0.00 in0.0 mm 0.00 in0.0 mm 0.03 in0.8 mm
10:15 AM 51.1°F10.6°C 50.2°F10.1°C 97% 2.0 mph SW3.2 kmh SW 9.0 mph14.5 kmh 29.87 in1011.5 mb 0.00 in0.0 mm 0.00 in0.0 mm 0.03 in0.8 mm
10:20 AM 51.2°F10.7°C 50.3°F10.2°C 97% Calm Calm 7.0 mph11.3 kmh 29.87 in1011.5 mb 0.00 in0.0 mm 0.00 in0.0 mm 0.03 in0.8 mm
10:25 AM 51.2°F10.7°C 50.3°F10.2°C 97% 2.0 mph SE3.2 kmh SE 7.0 mph11.3 kmh 29.87 in1011.5 mb 0.00 in0.0 mm 0.00 in0.0 mm 0.03 in0.8 mm
10:30 AM 51.2°F10.7°C 50.3°F10.2°C 97% 2.0 mph S3.2 kmh S 7.0 mph11.3 kmh 29.87 in1011.5 mb 0.00 in0.0 mm 0.00 in0.0 mm 0.03 in0.8 mm
10:35 AM 51.3°F10.7°C 50.4°F10.2°C 97% 3.0 mph WSW4.8 kmh WSW 10.0 mph16.1 kmh 29.87 in1011.5 mb 0.00 in0.0 mm 0.00 in0.0 mm 0.03 in0.8 mm
10:40 AM 51.3°F10.7°C 50.4°F10.2°C 97% 3.0 mph SSE4.8 kmh SSE 11.0 mph17.7 kmh 29.86 in1011.2 mb 0.00 in0.0 mm 0.00 in0.0 mm 0.03 in0.8 mm
10:45 AM 51.4°F10.8°C 50.5°F10.3°C 97% 6.0 mph SSW9.7 kmh SSW 8.0 mph12.9 kmh 29.87 in1011.5 mb 0.00 in0.0 mm 0.00 in0.0 mm 0.03 in0.8 mm
10:50 AM 51.5°F10.8°C 50.6°F10.3°C 97% Calm Calm 7.0 mph11.3 kmh 29.86 in1011.2 mb 0.00 in0.0 mm 0.00 in0.0 mm 0.03 in0.8 mm
10:55 AM 51.5°F10.8°C 50.6°F10.3°C 97% 4.0 mph WSW6.4 kmh WSW 9.0 mph14.5 kmh 29.86 in1011.2 mb 0.00 in0.0 mm 0.00 in0.0 mm 0.03 in0.8 mm
11:00 AM 51.5°F10.8°C 50.6°F10.3°C 97% 2.0 mph SW3.2 kmh SW 8.0 mph12.9 kmh 29.86 in1011.2 mb 0.00 in0.0 mm 0.00 in0.0 mm 0.03 in0.8 mm
11:05 AM 51.5°F10.8°C 50.6°F10.3°C 97% 3.0 mph SW4.8 kmh SW 9.0 mph14.5 kmh 29.86 in1011.2 mb 0.00 in0.0 mm 0.00 in0.0 mm 0.03 in0.8 mm
11:10 AM 51.5°F10.8°C 50.6°F10.3°C 97% 4.0 mph SE6.4 kmh SE 8.0 mph12.9 kmh 29.85 in1010.8 mb 0.00 in0.0 mm 0.00 in0.0 mm 0.03 in0.8 mm
11:15 AM 51.6°F10.9°C 50.7°F10.4°C 97% 5.0 mph S8.0 kmh S 7.0 mph11.3 kmh 29.85 in1010.8 mb 0.00 in0.0 mm 0.00 in0.0 mm 0.03 in0.8 mm
11:20 AM 51.7°F10.9°C 50.8°F10.4°C 97% 7.0 mph SE11.3 kmh SE 7.0 mph11.3 kmh 29.85 in1010.8 mb 0.00 in0.0 mm 0.00 in0.0 mm 0.03 in0.8 mm
11:25 AM 51.8°F11.0°C 50.9°F10.5°C 97% 1.0 mph SSW1.6 kmh SSW 6.0 mph9.7 kmh 29.84 in1010.5 mb 0.00 in0.0 mm 0.00 in0.0 mm 0.03 in0.8 mm
11:30 AM 51.9°F11.1°C 51.0°F10.6°C 97% 1.0 mph SE1.6 kmh SE 6.0 mph9.7 kmh 29.84 in1010.5 mb 0.00 in0.0 mm 0.00 in0.0 mm 0.03 in0.8 mm
11:35 AM 52.1°F11.2°C 51.2°F10.7°C 97% 3.0 mph S4.8 kmh S 8.0 mph12.9 kmh 29.84 in1010.5 mb 0.00 in0.0 mm 0.00 in0.0 mm 0.03 in0.8 mm
11:40 AM 52.1°F11.2°C 50.9°F10.5°C 96% 5.0 mph SW8.0 kmh SW 10.0 mph16.1 kmh 29.84 in1010.5 mb 0.00 in0.0 mm 0.00 in0.0 mm 0.03 in0.8 mm
11:45 AM 52.2°F11.2°C 51.0°F10.6°C 96% 6.0 mph SW9.7 kmh SW 8.0 mph12.9 kmh 29.84 in1010.5 mb 0.00 in0.0 mm 0.00 in0.0 mm 0.03 in0.8 mm
11:50 AM 52.3°F11.3°C 51.1°F10.6°C 96% 5.0 mph SE8.0 kmh SE 9.0 mph14.5 kmh 29.83 in1010.2 mb 0.00 in0.0 mm 0.00 in0.0 mm 0.03 in0.8 mm
11:55 AM 52.4°F11.3°C 51.0°F10.6°C 95% 2.0 mph ESE3.2 kmh ESE 9.0 mph14.5 kmh 29.82 in1009.8 mb 0.00 in0.0 mm 0.00 in0.0 mm 0.03 in0.8 mm
12:00 PM 52.7°F11.5°C 51.3°F10.7°C 95% 5.0 mph ESE8.0 kmh ESE 8.0 mph12.9 kmh 29.82 in1009.8 mb 0.00 in0.0 mm 0.00 in0.0 mm 0.03 in0.8 mm
12:05 PM 52.9°F11.6°C 51.5°F10.8°C 95% 3.0 mph SE4.8 kmh SE 9.0 mph14.5 kmh 29.81 in1009.5 mb 0.00 in0.0 mm 0.00 in0.0 mm 0.03 in0.8 mm
12:10 PM 53.1°F11.7°C 51.7°F10.9°C 95% 2.0 mph SE3.2 kmh SE 10.0 mph16.1 kmh 29.81 in1009.5 mb 0.00 in0.0 mm 0.00 in0.0 mm 0.03 in0.8 mm
12:15 PM 53.4°F11.9°C 51.7°F10.9°C 94% Calm Calm 7.0 mph11.3 kmh 29.80 in1009.1 mb 0.00 in0.0 mm 0.00 in0.0 mm 0.03 in0.8 mm
12:20 PM 53.7°F12.1°C 52.0°F11.1°C 94% 8.0 mph SW12.9 kmh SW 8.0 mph12.9 kmh 29.80 in1009.1 mb 0.00 in0.0 mm 0.00 in0.0 mm 0.03 in0.8 mm
12:25 PM 53.9°F12.2°C 52.2°F11.2°C 94% 8.0 mph ESE12.9 kmh ESE 13.0 mph20.9 kmh 29.79 in1008.8 mb 0.00 in0.0 mm 0.00 in0.0 mm 0.03 in0.8 mm
12:30 PM 54.2°F12.3°C 52.5°F11.4°C 94% 2.0 mph SE3.2 kmh SE 9.0 mph14.5 kmh 29.78 in1008.5 mb 0.00 in0.0 mm 0.00 in0.0 mm 0.03 in0.8 mm
12:35 PM 54.5°F12.5°C 52.5°F11.4°C 93% 2.0 mph SE3.2 kmh SE 9.0 mph14.5 kmh 29.78 in1008.5 mb 0.00 in0.0 mm 0.00 in0.0 mm 0.03 in0.8 mm
12:40 PM 55.0°F12.8°C 53.0°F11.7°C 93% 5.0 mph SE8.0 kmh SE 10.0 mph16.1 kmh 29.77 in1008.1 mb 0.01 in0.3 mm 0.12 in3.0 mm 0.04 in1.0 mm
12:45 PM 55.2°F12.9°C 52.9°F11.6°C 92% 4.0 mph SW6.4 kmh SW 10.0 mph16.1 kmh 29.77 in1008.1 mb 0.01 in0.3 mm 0.00 in0.0 mm 0.04 in1.0 mm
12:50 PM 55.3°F12.9°C 52.7°F11.5°C 91% 9.0 mph ESE14.5 kmh ESE 11.0 mph17.7 kmh 29.77 in1008.1 mb 0.01 in0.3 mm 0.00 in0.0 mm 0.04 in1.0 mm
12:55 PM 55.7°F13.2°C 52.8°F11.6°C 90% Calm Calm 13.0 mph20.9 kmh 29.76 in1007.8 mb 0.01 in0.3 mm 0.00 in0.0 mm 0.04 in1.0 mm
01:00 PM 56.0°F13.3°C 53.1°F11.7°C 90% 3.0 mph SW4.8 kmh SW 12.0 mph19.3 kmh 29.76 in1007.8 mb 0.01 in0.3 mm 0.00 in0.0 mm 0.04 in1.0 mm
01:05 PM 56.7°F13.7°C 53.4°F11.9°C 89% 5.0 mph ESE8.0 kmh ESE 11.0 mph17.7 kmh 29.75 in1007.5 mb 0.01 in0.3 mm 0.00 in0.0 mm 0.04 in1.0 mm
01:10 PM 56.8°F13.8°C 52.9°F11.6°C 87% 3.0 mph SE4.8 kmh SE 10.0 mph16.1 kmh 29.75 in1007.5 mb 0.01 in0.3 mm 0.00 in0.0 mm 0.04 in1.0 mm
01:15 PM 57.0°F13.9°C 53.1°F11.7°C 87% 2.0 mph SW3.2 kmh SW 10.0 mph16.1 kmh 29.74 in1007.1 mb 0.01 in0.3 mm 0.00 in0.0 mm 0.04 in1.0 mm
01:20 PM 57.2°F14.0°C 53.3°F11.8°C 87% 9.0 mph SE14.5 kmh SE 12.0 mph19.3 kmh 29.74 in1007.1 mb 0.01 in0.3 mm 0.00 in0.0 mm 0.04 in1.0 mm
01:25 PM 57.4°F14.1°C 53.5°F11.9°C 87% 10.0 mph SE16.1 kmh SE 11.0 mph17.7 kmh 29.74 in1007.1 mb 0.01 in0.3 mm 0.00 in0.0 mm 0.04 in1.0 mm
01:30 PM 57.3°F14.1°C 52.8°F11.6°C 85% 8.0 mph SE12.9 kmh SE 12.0 mph19.3 kmh 29.74 in1007.1 mb 0.01 in0.3 mm 0.00 in0.0 mm 0.04 in1.0 mm
01:35 PM 57.1°F13.9°C 52.6°F11.4°C 85% 4.0 mph SE6.4 kmh SE 11.0 mph17.7 kmh 29.73 in1006.8 mb 0.01 in0.3 mm 0.00 in0.0 mm 0.04 in1.0 mm
01:40 PM 57.4°F14.1°C 52.9°F11.6°C 85% 5.0 mph SE8.0 kmh SE 12.0 mph19.3 kmh 29.73 in1006.8 mb 0.00 in0.0 mm 0.00 in0.0 mm 0.04 in1.0 mm
01:45 PM 57.8°F14.3°C 52.9°F11.6°C 84% 4.0 mph SE6.4 kmh SE 12.0 mph19.3 kmh 29.72 in1006.4 mb 0.00 in0.0 mm 0.00 in0.0 mm 0.04 in1.0 mm
01:50 PM 57.9°F14.4°C 53.0°F11.7°C 84% 9.0 mph E14.5 kmh E 12.0 mph19.3 kmh 29.72 in1006.4 mb 0.00 in0.0 mm 0.00 in0.0 mm 0.04 in1.0 mm
01:55 PM 58.2°F14.6°C 53.3°F11.8°C 84% 7.0 mph SSE11.3 kmh SSE 9.0 mph14.5 kmh 29.71 in1006.1 mb 0.00 in0.0 mm 0.00 in0.0 mm 0.04 in1.0 mm
02:00 PM 58.3°F14.6°C 53.1°F11.7°C 83% 2.0 mph SE3.2 kmh SE 12.0 mph19.3 kmh 29.71 in1006.1 mb 0.00 in0.0 mm 0.00 in0.0 mm 0.04 in1.0 mm
02:05 PM 58.4°F14.7°C 53.2°F11.8°C 83% 5.0 mph ESE8.0 kmh ESE 11.0 mph17.7 kmh 29.71 in1006.1 mb 0.00 in0.0 mm 0.00 in0.0 mm 0.04 in1.0 mm
02:10 PM 58.5°F14.7°C 53.3°F11.8°C 83% Calm Calm 12.0 mph19.3 kmh 29.71 in1006.1 mb 0.00 in0.0 mm 0.00 in0.0 mm 0.04 in1.0 mm
02:15 PM 58.8°F14.9°C 53.6°F12.0°C 83% 7.0 mph SE11.3 kmh SE 10.0 mph16.1 kmh 29.70 in1005.8 mb 0.00 in0.0 mm 0.00 in0.0 mm 0.04 in1.0 mm
02:20 PM 58.8°F14.9°C 53.6°F12.0°C 83% 5.0 mph SE8.0 kmh SE 9.0 mph14.5 kmh 29.70 in1005.8 mb 0.00 in0.0 mm 0.00 in0.0 mm 0.04 in1.0 mm
02:25 PM 59.1°F15.1°C 53.9°F12.2°C 83% 5.0 mph SE8.0 kmh SE 10.0 mph16.1 kmh 29.70 in1005.8 mb 0.00 in0.0 mm 0.00 in0.0 mm 0.04 in1.0 mm
02:30 PM 59.3°F15.2°C 53.8°F12.1°C 82% 6.0 mph SE9.7 kmh SE 10.0 mph16.1 kmh 29.70 in1005.8 mb 0.00 in0.0 mm 0.00 in0.0 mm 0.04 in1.0 mm
02:35 PM 59.7°F15.4°C 54.1°F12.3°C 82% 10.0 mph SE16.1 kmh SE 10.0 mph16.1 kmh 29.69 in1005.4 mb 0.00 in0.0 mm 0.00 in0.0 mm 0.04 in1.0 mm
02:40 PM 60.0°F15.6°C 54.1°F12.3°C 81% 9.0 mph SE14.5 kmh SE 12.0 mph19.3 kmh 29.69 in1005.4 mb 0.00 in0.0 mm 0.00 in0.0 mm 0.04 in1.0 mm
02:45 PM 60.0°F15.6°C 53.8°F12.1°C 80% 1.0 mph S1.6 kmh S 10.0 mph16.1 kmh 29.69 in1005.4 mb 0.00 in0.0 mm 0.00 in0.0 mm 0.04 in1.0 mm
02:50 PM 60.0°F15.6°C 54.1°F12.3°C 81% 10.0 mph ESE16.1 kmh ESE 11.0 mph17.7 kmh 29.68 in1005.1 mb 0.00 in0.0 mm 0.00 in0.0 mm 0.04 in1.0 mm
02:55 PM 59.8°F15.4°C 53.6°F12.0°C 80% 9.0 mph ESE14.5 kmh ESE 13.0 mph20.9 kmh 29.68 in1005.1 mb 0.00 in0.0 mm 0.00 in0.0 mm 0.04 in1.0 mm
03:00 PM 59.8°F15.4°C 53.9°F12.2°C 81% 7.0 mph SE11.3 kmh SE 11.0 mph17.7 kmh 29.68 in1005.1 mb 0.00 in0.0 mm 0.00 in0.0 mm 0.04 in1.0 mm
03:05 PM 60.0°F15.6°C 54.1°F12.3°C 81% 7.0 mph ESE11.3 kmh ESE 11.0 mph17.7 kmh 29.68 in1005.1 mb 0.00 in0.0 mm 0.00 in0.0 mm 0.04 in1.0 mm
03:10 PM 60.2°F15.7°C 54.0°F12.2°C 80% 11.0 mph ESE17.7 kmh ESE 11.0 mph17.7 kmh 29.68 in1005.1 mb 0.00 in0.0 mm 0.00 in0.0 mm 0.04 in1.0 mm
03:15 PM 60.4°F15.8°C 54.1°F12.3°C 80% 4.0 mph SE6.4 kmh SE 10.0 mph16.1 kmh 29.68 in1005.1 mb 0.00 in0.0 mm 0.00 in0.0 mm 0.04 in1.0 mm
03:20 PM 60.6°F15.9°C 54.0°F12.2°C 79% 9.0 mph ESE14.5 kmh ESE 12.0 mph19.3 kmh 29.68 in1005.1 mb 0.00 in0.0 mm 0.00 in0.0 mm 0.04 in1.0 mm
03:25 PM 60.8°F16.0°C 54.2°F12.3°C 79% 6.0 mph SE9.7 kmh SE 12.0 mph19.3 kmh 29.68 in1005.1 mb 0.00 in0.0 mm 0.00 in0.0 mm 0.04 in1.0 mm
03:30 PM 60.9°F16.1°C 54.3°F12.4°C 79% 5.0 mph SE8.0 kmh SE 12.0 mph19.3 kmh 29.68 in1005.1 mb 0.00 in0.0 mm 0.00 in0.0 mm 0.04 in1.0 mm
03:35 PM 61.2°F16.2°C 54.2°F12.3°C 78% 1.0 mph SE1.6 kmh SE 10.0 mph16.1 kmh 29.68 in1005.1 mb 0.00 in0.0 mm 0.00 in0.0 mm 0.04 in1.0 mm
03:40 PM 61.3°F16.3°C 54.0°F12.2°C 77% 3.0 mph SE4.8 kmh SE 15.0 mph24.1 kmh 29.68 in1005.1 mb 0.00 in0.0 mm 0.00 in0.0 mm 0.04 in1.0 mm
03:45 PM 61.4°F16.3°C 54.1°F12.3°C 77% 11.0 mph SE17.7 kmh SE 11.0 mph17.7 kmh 29.68 in1005.1 mb 0.00 in0.0 mm 0.00 in0.0 mm 0.04 in1.0 mm
03:50 PM 61.5°F16.4°C 53.8°F12.1°C 76% 6.0 mph SE9.7 kmh SE 9.0 mph14.5 kmh 29.67 in1004.7 mb 0.00 in0.0 mm 0.00 in0.0 mm 0.04 in1.0 mm
03:55 PM 61.3°F16.3°C 54.0°F12.2°C 77% 5.0 mph ESE8.0 kmh ESE 12.0 mph19.3 kmh 29.67 in1004.7 mb 0.00 in0.0 mm 0.00 in0.0 mm 0.04 in1.0 mm
04:00 PM 61.2°F16.2°C 54.2°F12.3°C 78% 5.0 mph SE8.0 kmh SE 13.0 mph20.9 kmh 29.67 in1004.7 mb 0.00 in0.0 mm 0.00 in0.0 mm 0.04 in1.0 mm
04:05 PM 61.3°F16.3°C 54.3°F12.4°C 78% 2.0 mph SSW3.2 kmh SSW 10.0 mph16.1 kmh 29.67 in1004.7 mb 0.00 in0.0 mm 0.00 in0.0 mm 0.04 in1.0 mm
04:10 PM 61.5°F16.4°C 54.2°F12.3°C 77% 3.0 mph WSW4.8 kmh WSW 12.0 mph19.3 kmh 29.68 in1005.1 mb 0.00 in0.0 mm 0.00 in0.0 mm 0.04 in1.0 mm
04:15 PM 61.7°F16.5°C 54.0°F12.2°C 76% 11.0 mph ESE17.7 kmh ESE 11.0 mph17.7 kmh 29.67 in1004.7 mb 0.00 in0.0 mm 0.00 in0.0 mm 0.04 in1.0 mm
04:20 PM 61.5°F16.4°C 54.2°F12.3°C 77% 4.0 mph SE6.4 kmh SE 12.0 mph19.3 kmh 29.67 in1004.7 mb 0.00 in0.0 mm 0.00 in0.0 mm 0.04 in1.0 mm
04:25 PM 61.4°F16.3°C 54.1°F12.3°C 77% Calm Calm 13.0 mph20.9 kmh 29.67 in1004.7 mb 0.00 in0.0 mm 0.00 in0.0 mm 0.04 in1.0 mm
04:30 PM 61.4°F16.3°C 54.1°F12.3°C 77% 2.0 mph SSE3.2 kmh SSE 13.0 mph20.9 kmh 29.67 in1004.7 mb 0.00 in0.0 mm 0.00 in0.0 mm 0.04 in1.0 mm
04:35 PM 61.5°F16.4°C 54.2°F12.3°C 77% 6.0 mph E9.7 kmh E 13.0 mph20.9 kmh 29.67 in1004.7 mb 0.00 in0.0 mm 0.00 in0.0 mm 0.04 in1.0 mm
04:40 PM 61.6°F16.4°C 53.9°F12.2°C 76% 3.0 mph S4.8 kmh S 11.0 mph17.7 kmh 29.66 in1004.4 mb 0.00 in0.0 mm 0.00 in0.0 mm 0.04 in1.0 mm
04:45 PM 61.7°F16.5°C 54.0°F12.2°C 76% 6.0 mph SE9.7 kmh SE 10.0 mph16.1 kmh 29.66 in1004.4 mb 0.00 in0.0 mm 0.00 in0.0 mm 0.04 in1.0 mm
04:50 PM 61.6°F16.4°C 54.3°F12.4°C 77% 10.0 mph SE16.1 kmh SE 12.0 mph19.3 kmh 29.66 in1004.4 mb 0.00 in0.0 mm 0.00 in0.0 mm 0.04 in1.0 mm
04:55 PM 61.5°F16.4°C 54.2°F12.3°C 77% 6.0 mph SE9.7 kmh SE 10.0 mph16.1 kmh 29.66 in1004.4 mb 0.00 in0.0 mm 0.00 in0.0 mm 0.04 in1.0 mm
05:00 PM 61.6°F16.4°C 54.3°F12.4°C 77% 5.0 mph SE8.0 kmh SE 11.0 mph17.7 kmh 29.66 in1004.4 mb 0.00 in0.0 mm 0.00 in0.0 mm 0.04 in1.0 mm
05:05 PM 61.5°F16.4°C 54.2°F12.3°C 77% 7.0 mph SE11.3 kmh SE 10.0 mph16.1 kmh 29.66 in1004.4 mb 0.00 in0.0 mm 0.00 in0.0 mm 0.04 in1.0 mm
05:10 PM 61.4°F16.3°C 54.1°F12.3°C 77% 5.0 mph SE8.0 kmh SE 10.0 mph16.1 kmh 29.66 in1004.4 mb 0.00 in0.0 mm 0.00 in0.0 mm 0.04 in1.0 mm
05:15 PM 61.2°F16.2°C 53.9°F12.2°C 77% 9.0 mph ESE14.5 kmh ESE 10.0 mph16.1 kmh 29.66 in1004.4 mb 0.00 in0.0 mm 0.00 in0.0 mm 0.04 in1.0 mm
05:20 PM 61.0°F16.1°C 54.0°F12.2°C 78% 4.0 mph SE6.4 kmh SE 11.0 mph17.7 kmh 29.66 in1004.4 mb 0.00 in0.0 mm 0.00 in0.0 mm 0.04 in1.0 mm
05:25 PM 60.7°F15.9°C 54.1°F12.3°C 79% 7.0 mph SE11.3 kmh SE 13.0 mph20.9 kmh 29.66 in1004.4 mb 0.00 in0.0 mm 0.00 in0.0 mm 0.04 in1.0 mm
05:30 PM 60.4°F15.8°C 54.1°F12.3°C 80% 8.0 mph SE12.9 kmh SE 10.0 mph16.1 kmh 29.66 in1004.4 mb 0.00 in0.0 mm 0.00 in0.0 mm 0.04 in1.0 mm
05:35 PM 60.2°F15.7°C 54.0°F12.2°C 80% 5.0 mph SE8.0 kmh SE 10.0 mph16.1 kmh 29.66 in1004.4 mb 0.00 in0.0 mm 0.00 in0.0 mm 0.04 in1.0 mm
05:40 PM 60.1°F15.6°C 53.9°F12.2°C 80% 4.0 mph SE6.4 kmh SE 9.0 mph14.5 kmh 29.66 in1004.4 mb 0.00 in0.0 mm 0.00 in0.0 mm 0.04 in1.0 mm
05:45 PM 60.0°F15.6°C 53.8°F12.1°C 80% 8.0 mph SE12.9 kmh SE 10.0 mph16.1 kmh 29.65 in1004.1 mb 0.00 in0.0 mm 0.00 in0.0 mm 0.04 in1.0 mm
05:50 PM 59.9°F15.5°C 53.7°F12.1°C 80% 6.0 mph SE9.7 kmh SE 9.0 mph14.5 kmh 29.65 in1004.1 mb 0.00 in0.0 mm 0.00 in0.0 mm 0.04 in1.0 mm
05:55 PM 59.8°F15.4°C 53.9°F12.2°C 81% 4.0 mph SE6.4 kmh SE 11.0 mph17.7 kmh 29.65 in1004.1 mb 0.00 in0.0 mm 0.00 in0.0 mm 0.04 in1.0 mm
06:00 PM 59.6°F15.3°C 53.7°F12.1°C 81% 2.0 mph SE3.2 kmh SE 9.0 mph14.5 kmh 29.65 in1004.1 mb 0.00 in0.0 mm 0.00 in0.0 mm 0.04 in1.0 mm
06:05 PM 59.4°F15.2°C 53.5°F11.9°C 81% 7.0 mph SE11.3 kmh SE 8.0 mph12.9 kmh 29.65 in1004.1 mb 0.00 in0.0 mm 0.00 in0.0 mm 0.04 in1.0 mm
06:10 PM 59.2°F15.1°C 53.7°F12.1°C 82% 5.0 mph ESE8.0 kmh ESE 10.0 mph16.1 kmh 29.65 in1004.1 mb 0.00 in0.0 mm 0.00 in0.0 mm 0.04 in1.0 mm
06:15 PM 59.0°F15.0°C 53.5°F11.9°C 82% 2.0 mph ESE3.2 kmh ESE 11.0 mph17.7 kmh 29.66 in1004.4 mb 0.00 in0.0 mm 0.00 in0.0 mm 0.04 in1.0 mm
06:20 PM 58.6°F14.8°C 53.1°F11.7°C 82% 7.0 mph SE11.3 kmh SE 9.0 mph14.5 kmh 29.66 in1004.4 mb 0.00 in0.0 mm 0.00 in0.0 mm 0.04 in1.0 mm
06:25 PM 58.1°F14.5°C 53.2°F11.8°C 84% 8.0 mph SE12.9 kmh SE 11.0 mph17.7 kmh 29.66 in1004.4 mb 0.00 in0.0 mm 0.00 in0.0 mm 0.04 in1.0 mm
06:30 PM 57.8°F14.3°C 53.3°F11.8°C 85% 4.0 mph SE6.4 kmh SE 9.0 mph14.5 kmh 29.66 in1004.4 mb 0.00 in0.0 mm 0.00 in0.0 mm 0.04 in1.0 mm
06:35 PM 57.5°F14.2°C 53.3°F11.8°C 86% 7.0 mph SE11.3 kmh SE 7.0 mph11.3 kmh 29.66 in1004.4 mb 0.00 in0.0 mm 0.00 in0.0 mm 0.04 in1.0 mm
06:40 PM 57.3°F14.1°C 53.1°F11.7°C 86% 5.0 mph ESE8.0 kmh ESE 10.0 mph16.1 kmh 29.66 in1004.4 mb 0.00 in0.0 mm 0.00 in0.0 mm 0.04 in1.0 mm
06:45 PM 57.2°F14.0°C 53.3°F11.8°C 87% 7.0 mph ESE11.3 kmh ESE 9.0 mph14.5 kmh 29.67 in1004.7 mb 0.00 in0.0 mm 0.00 in0.0 mm 0.04 in1.0 mm
06:50 PM 57.1°F13.9°C 53.2°F11.8°C 87% 4.0 mph SE6.4 kmh SE 8.0 mph12.9 kmh 29.67 in1004.7 mb 0.00 in0.0 mm 0.00 in0.0 mm 0.04 in1.0 mm
06:55 PM 57.0°F13.9°C 53.1°F11.7°C 87% 3.0 mph SE4.8 kmh SE 7.0 mph11.3 kmh 29.67 in1004.7 mb 0.00 in0.0 mm 0.00 in0.0 mm 0.04 in1.0 mm
07:00 PM 56.9°F13.8°C 53.0°F11.7°C 87% 2.0 mph SE3.2 kmh SE 7.0 mph11.3 kmh 29.67 in1004.7 mb 0.00 in0.0 mm 0.00 in0.0 mm 0.04 in1.0 mm
07:05 PM 56.8°F13.8°C 53.2°F11.8°C 88% 2.0 mph SE3.2 kmh SE 7.0 mph11.3 kmh 29.67 in1004.7 mb 0.00 in0.0 mm 0.00 in0.0 mm 0.04 in1.0 mm
07:10 PM 56.6°F13.7°C 53.0°F11.7°C 88% 1.0 mph SE1.6 kmh SE 6.0 mph9.7 kmh 29.67 in1004.7 mb 0.00 in0.0 mm 0.00 in0.0 mm 0.04 in1.0 mm
07:15 PM 56.5°F13.6°C 52.9°F11.6°C 88% 3.0 mph SE4.8 kmh SE 5.0 mph8.0 kmh 29.67 in1004.7 mb 0.00 in0.0 mm 0.00 in0.0 mm 0.04 in1.0 mm
07:20 PM 56.4°F13.6°C 53.1°F11.7°C 89% 3.0 mph SE4.8 kmh SE 8.0 mph12.9 kmh 29.67 in1004.7 mb 0.00 in0.0 mm 0.00 in0.0 mm 0.04 in1.0 mm
07:25 PM 56.4°F13.6°C 53.1°F11.7°C 89% 1.0 mph SE1.6 kmh SE 8.0 mph12.9 kmh 29.67 in1004.7 mb 0.00 in0.0 mm 0.00 in0.0 mm 0.04 in1.0 mm
07:30 PM 56.3°F13.5°C 53.0°F11.7°C 89% 5.0 mph SE8.0 kmh SE 9.0 mph14.5 kmh 29.67 in1004.7 mb 0.00 in0.0 mm 0.00 in0.0 mm 0.04 in1.0 mm
07:35 PM 56.3°F13.5°C 53.0°F11.7°C 89% 3.0 mph SE4.8 kmh SE 7.0 mph11.3 kmh 29.67 in1004.7 mb 0.00 in0.0 mm 0.00 in0.0 mm 0.04 in1.0 mm
07:40 PM 56.2°F13.4°C 52.9°F11.6°C 89% 4.0 mph SE6.4 kmh SE 8.0 mph12.9 kmh 29.68 in1005.1 mb 0.00 in0.0 mm 0.00 in0.0 mm 0.04 in1.0 mm
07:45 PM 56.1°F13.4°C 52.9°F11.6°C 89% 3.0 mph ESE4.8 kmh ESE 9.0 mph14.5 kmh 29.67 in1004.7 mb 0.00 in0.0 mm 0.00 in0.0 mm 0.04 in1.0 mm
07:50 PM 56.1°F13.4°C 52.9°F11.6°C 89% 2.0 mph ESE3.2 kmh ESE 7.0 mph11.3 kmh 29.68 in1005.1 mb 0.00 in0.0 mm 0.00 in0.0 mm 0.04 in1.0 mm
07:55 PM 56.0°F13.3°C 52.8°F11.6°C 89% 2.0 mph SE3.2 kmh SE 9.0 mph14.5 kmh 29.67 in1004.7 mb 0.00 in0.0 mm 0.00 in0.0 mm 0.04 in1.0 mm
08:00 PM 55.9°F13.3°C 52.7°F11.5°C 89% 2.0 mph SE3.2 kmh SE 8.0 mph12.9 kmh 29.67 in1004.7 mb 0.00 in0.0 mm 0.00 in0.0 mm 0.04 in1.0 mm
08:05 PM 55.8°F13.2°C 52.6°F11.4°C 89% 2.0 mph ESE3.2 kmh ESE 7.0 mph11.3 kmh 29.67 in1004.7 mb 0.00 in0.0 mm 0.00 in0.0 mm 0.04 in1.0 mm
08:10 PM 55.7°F13.2°C 52.8°F11.6°C 90% 2.0 mph SE3.2 kmh SE 7.0 mph11.3 kmh 29.67 in1004.7 mb 0.00 in0.0 mm 0.00 in0.0 mm 0.04 in1.0 mm
08:15 PM 55.6°F13.1°C 52.7°F11.5°C 90% 2.0 mph SE3.2 kmh SE 6.0 mph9.7 kmh 29.67 in1004.7 mb 0.00 in0.0 mm 0.00 in0.0 mm 0.04 in1.0 mm
08:20 PM 55.5°F13.1°C 52.6°F11.4°C 90% 1.0 mph SE1.6 kmh SE 8.0 mph12.9 kmh 29.67 in1004.7 mb 0.00 in0.0 mm 0.00 in0.0 mm 0.04 in1.0 mm
08:25 PM 55.5°F13.1°C 52.6°F11.4°C 90% 7.0 mph SE11.3 kmh SE 8.0 mph12.9 kmh 29.67 in1004.7 mb 0.00 in0.0 mm 0.00 in0.0 mm 0.04 in1.0 mm
08:30 PM 55.4°F13.0°C 52.5°F11.4°C 90% 4.0 mph SE6.4 kmh SE 8.0 mph12.9 kmh 29.67 in1004.7 mb 0.00 in0.0 mm 0.00 in0.0 mm 0.04 in1.0 mm
08:35 PM 55.3°F12.9°C 52.4°F11.3°C 90% 3.0 mph SE4.8 kmh SE 8.0 mph12.9 kmh 29.68 in1005.1 mb 0.00 in0.0 mm 0.00 in0.0 mm 0.04 in1.0 mm
08:40 PM 55.3°F12.9°C 52.4°F11.3°C 90% 1.0 mph SE1.6 kmh SE 8.0 mph12.9 kmh 29.68 in1005.1 mb 0.00 in0.0 mm 0.00 in0.0 mm 0.04 in1.0 mm
08:45 PM 55.3°F12.9°C 52.7°F11.5°C 91% 2.0 mph ESE3.2 kmh ESE 9.0 mph14.5 kmh 29.68 in1005.1 mb 0.00 in0.0 mm 0.00 in0.0 mm 0.04 in1.0 mm
08:50 PM 55.2°F12.9°C 52.6°F11.4°C 91% 3.0 mph ESE4.8 kmh ESE 8.0 mph12.9 kmh 29.68 in1005.1 mb 0.00 in0.0 mm 0.00 in0.0 mm 0.04 in1.0 mm
08:55 PM 55.3°F12.9°C 52.7°F11.5°C 91% 4.0 mph SE6.4 kmh SE 8.0 mph12.9 kmh 29.68 in1005.1 mb 0.00 in0.0 mm 0.00 in0.0 mm 0.04 in1.0 mm
09:00 PM 55.3°F12.9°C 52.7°F11.5°C 91% 2.0 mph SE3.2 kmh SE 5.0 mph8.0 kmh 29.68 in1005.1 mb 0.00 in0.0 mm 0.00 in0.0 mm 0.04 in1.0 mm
09:05 PM 55.3°F12.9°C 52.7°F11.5°C 91% 4.0 mph SE6.4 kmh SE 7.0 mph11.3 kmh 29.68 in1005.1 mb 0.00 in0.0 mm 0.00 in0.0 mm 0.04 in1.0 mm
09:10 PM 55.3°F12.9°C 52.7°F11.5°C 91% 3.0 mph SE4.8 kmh SE 7.0 mph11.3 kmh 29.68 in1005.1 mb 0.00 in0.0 mm 0.00 in0.0 mm 0.04 in1.0 mm
09:15 PM 55.3°F12.9°C 52.7°F11.5°C 91% Calm Calm 9.0 mph14.5 kmh 29.68 in1005.1 mb 0.00 in0.0 mm 0.00 in0.0 mm 0.04 in1.0 mm
09:20 PM 55.3°F12.9°C 52.7°F11.5°C 91% 3.0 mph ESE4.8 kmh ESE 5.0 mph8.0 kmh 29.68 in1005.1 mb 0.00 in0.0 mm 0.00 in0.0 mm 0.04 in1.0 mm
09:25 PM 55.3°F12.9°C 53.0°F11.7°C 92% 7.0 mph SE11.3 kmh SE 10.0 mph16.1 kmh 29.67 in1004.7 mb 0.00 in0.0 mm 0.00 in0.0 mm 0.04 in1.0 mm
09:30 PM 55.3°F12.9°C 53.0°F11.7°C 92% Calm Calm 8.0 mph12.9 kmh 29.67 in1004.7 mb 0.00 in0.0 mm 0.00 in0.0 mm 0.04 in1.0 mm
09:35 PM 55.2°F12.9°C 52.9°F11.6°C 92% 4.0 mph SE6.4 kmh SE 11.0 mph17.7 kmh 29.67 in1004.7 mb 0.00 in0.0 mm 0.00 in0.0 mm 0.04 in1.0 mm
09:40 PM 55.3°F12.9°C 53.0°F11.7°C 92% 4.0 mph SE6.4 kmh SE 10.0 mph16.1 kmh 29.67 in1004.7 mb 0.00 in0.0 mm 0.00 in0.0 mm 0.04 in1.0 mm
09:45 PM 55.3°F12.9°C 53.0°F11.7°C 92% 7.0 mph SE11.3 kmh SE 10.0 mph16.1 kmh 29.67 in1004.7 mb 0.00 in0.0 mm 0.00 in0.0 mm 0.04 in1.0 mm
09:50 PM 55.3°F12.9°C 53.0°F11.7°C 92% Calm Calm 11.0 mph17.7 kmh 29.68 in1005.1 mb 0.00 in0.0 mm 0.00 in0.0 mm 0.04 in1.0 mm
09:55 PM 55.2°F12.9°C 52.9°F11.6°C 92% 3.0 mph S4.8 kmh S 9.0 mph14.5 kmh 29.68 in1005.1 mb 0.00 in0.0 mm 0.00 in0.0 mm 0.04 in1.0 mm
10:00 PM 55.1°F12.8°C 52.8°F11.6°C 92% 1.0 mph SE1.6 kmh SE 6.0 mph9.7 kmh 29.68 in1005.1 mb 0.00 in0.0 mm 0.00 in0.0 mm 0.04 in1.0 mm
10:05 PM 55.0°F12.8°C 53.0°F11.7°C 93% 2.0 mph E3.2 kmh E 9.0 mph14.5 kmh 29.68 in1005.1 mb 0.00 in0.0 mm 0.00 in0.0 mm 0.04 in1.0 mm
10:10 PM 55.0°F12.8°C 53.0°F11.7°C 93% 1.0 mph ESE1.6 kmh ESE 9.0 mph14.5 kmh 29.67 in1004.7 mb 0.00 in0.0 mm 0.00 in0.0 mm 0.04 in1.0 mm
10:15 PM 55.0°F12.8°C 53.0°F11.7°C 93% Calm Calm 8.0 mph12.9 kmh 29.67 in1004.7 mb 0.00 in0.0 mm 0.00 in0.0 mm 0.04 in1.0 mm
10:20 PM 54.9°F12.7°C 52.9°F11.6°C 93% 1.0 mph SE1.6 kmh SE 4.0 mph6.4 kmh 29.66 in1004.4 mb 0.00 in0.0 mm 0.00 in0.0 mm 0.04 in1.0 mm
10:25 PM 54.9°F12.7°C 52.9°F11.6°C 93% 2.0 mph SE3.2 kmh SE 10.0 mph16.1 kmh 29.67 in1004.7 mb 0.00 in0.0 mm 0.00 in0.0 mm 0.04 in1.0 mm
10:30 PM 55.0°F12.8°C 53.0°F11.7°C 93% 4.0 mph SE6.4 kmh SE 10.0 mph16.1 kmh 29.67 in1004.7 mb 0.00 in0.0 mm 0.00 in0.0 mm 0.04 in1.0 mm
10:35 PM 55.0°F12.8°C 53.0°F11.7°C 93% 4.0 mph SSW6.4 kmh SSW 7.0 mph11.3 kmh 29.67 in1004.7 mb 0.00 in0.0 mm 0.00 in0.0 mm 0.04 in1.0 mm
10:40 PM 55.0°F12.8°C 53.3°F11.8°C 94% 4.0 mph SSE6.4 kmh SSE 9.0 mph14.5 kmh 29.67 in1004.7 mb 0.00 in0.0 mm 0.00 in0.0 mm 0.04 in1.0 mm
10:45 PM 55.1°F12.8°C 53.4°F11.9°C 94% Calm Calm 9.0 mph14.5 kmh 29.67 in1004.7 mb 0.00 in0.0 mm 0.00 in0.0 mm 0.04 in1.0 mm
10:50 PM 55.1°F12.8°C 53.4°F11.9°C 94% Calm Calm 7.0 mph11.3 kmh 29.67 in1004.7 mb 0.00 in0.0 mm 0.00 in0.0 mm 0.04 in1.0 mm
10:55 PM 55.1°F12.8°C 53.4°F11.9°C 94% 4.0 mph SSE6.4 kmh SSE 6.0 mph9.7 kmh 29.67 in1004.7 mb 0.00 in0.0 mm 0.00 in0.0 mm 0.04 in1.0 mm
11:00 PM 55.2°F12.9°C 53.5°F11.9°C 94% 4.0 mph SE6.4 kmh SE 8.0 mph12.9 kmh 29.67 in1004.7 mb 0.00 in0.0 mm 0.00 in0.0 mm 0.04 in1.0 mm
11:05 PM 55.2°F12.9°C 53.5°F11.9°C 94% Calm Calm 9.0 mph14.5 kmh 29.66 in1004.4 mb 0.00 in0.0 mm 0.00 in0.0 mm 0.04 in1.0 mm
11:10 PM 55.1°F12.8°C 53.4°F11.9°C 94% Calm Calm 6.0 mph9.7 kmh 29.66 in1004.4 mb 0.00 in0.0 mm 0.00 in0.0 mm 0.04 in1.0 mm
11:15 PM 55.1°F12.8°C 53.4°F11.9°C 94% 1.0 mph SSE1.6 kmh SSE 5.0 mph8.0 kmh 29.66 in1004.4 mb 0.00 in0.0 mm 0.00 in0.0 mm 0.04 in1.0 mm
11:20 PM 55.0°F12.8°C 53.3°F11.8°C 94% 4.0 mph SSE6.4 kmh SSE 4.0 mph6.4 kmh 29.66 in1004.4 mb 0.00 in0.0 mm 0.00 in0.0 mm 0.04 in1.0 mm
11:25 PM 55.0°F12.8°C 53.3°F11.8°C 94% 1.0 mph SSE1.6 kmh SSE 4.0 mph6.4 kmh 29.66 in1004.4 mb 0.00 in0.0 mm 0.00 in0.0 mm 0.04 in1.0 mm
11:30 PM 55.0°F12.8°C 53.3°F11.8°C 94% 3.0 mph SE4.8 kmh SE 7.0 mph11.3 kmh 29.66 in1004.4 mb 0.00 in0.0 mm 0.00 in0.0 mm 0.04 in1.0 mm
11:35 PM 55.0°F12.8°C 53.3°F11.8°C 94% 3.0 mph S4.8 kmh S 7.0 mph11.3 kmh 29.66 in1004.4 mb 0.00 in0.0 mm 0.00 in0.0 mm 0.04 in1.0 mm
11:40 PM 55.1°F12.8°C 53.6°F12.0°C 95% 2.0 mph SE3.2 kmh SE 8.0 mph12.9 kmh 29.66 in1004.4 mb 0.00 in0.0 mm 0.00 in0.0 mm 0.04 in1.0 mm
11:45 PM 55.1°F12.8°C 53.6°F12.0°C 95% 3.0 mph SSE4.8 kmh SSE 8.0 mph12.9 kmh 29.65 in1004.1 mb 0.00 in0.0 mm 0.00 in0.0 mm 0.04 in1.0 mm
11:50 PM 55.1°F12.8°C 53.6°F12.0°C 95% 3.0 mph SSE4.8 kmh SSE 7.0 mph11.3 kmh 29.65 in1004.1 mb 0.00 in0.0 mm 0.00 in0.0 mm 0.04 in1.0 mm
11:55 PM 55.0°F12.8°C 53.5°F11.9°C 95% 2.0 mph SE3.2 kmh SE 5.0 mph8.0 kmh 29.65 in1004.1 mb 0.00 in0.0 mm 0.00 in0.0 mm 0.04 in1.0 mm